Time,TemperatureF,DewpointF,PressureIn,WindDirection,WindDirectionDegrees,WindSpeedMPH,WindSpeedGustMPH,Humidity,HourlyPrecipIn,Conditions,Clouds,dailyrainin,SoftwareType,DateUTC
2013-03-12 00:00:00,50.3,48.9,29.83,NE,51,0.0,0.0,95,0.06,,,0.00,VWS V14.01,2013-03-12 04:00:00,
2013-03-12 00:05:00,50.3,48.9,29.83,NE,51,0.0,1.0,95,0.08,,,0.02,VWS V14.01,2013-03-12 04:05:00,
2013-03-12 00:10:00,50.3,48.9,29.83,NW,323,0.0,2.0,95,0.10,,,0.04,VWS V14.01,2013-03-12 04:10:00,
2013-03-12 00:15:00,50.2,48.8,29.83,NW,323,0.0,2.0,95,0.11,,,0.05,VWS V14.01,2013-03-12 04:15:00,
2013-03-12 00:20:00,50.3,48.9,29.83,NW,323,0.0,2.0,95,0.12,,,0.06,VWS V14.01,2013-03-12 04:20:00,
2013-03-12 00:25:00,50.4,49.0,29.82,NW,323,0.0,2.0,95,0.14,,,0.08,VWS V14.01,2013-03-12 04:25:00,
2013-03-12 00:30:00,50.4,49.3,29.82,NW,323,0.0,0.0,96,0.14,,,0.10,VWS V14.01,2013-03-12 04:30:00,
2013-03-12 00:35:00,50.4,49.3,29.82,NW,323,0.0,0.0,96,0.15,,,0.11,VWS V14.01,2013-03-12 04:35:00,
2013-03-12 00:40:00,50.4,49.3,29.82,NW,323,0.0,0.0,96,0.17,,,0.13,VWS V14.01,2013-03-12 04:40:00,
2013-03-12 00:45:00,50.4,49.3,29.82,NW,323,0.0,0.0,96,0.18,,,0.14,VWS V14.01,2013-03-12 04:45:00,
2013-03-12 00:50:00,50.5,49.4,29.82,NW,323,0.0,0.0,96,0.19,,,0.15,VWS V14.01,2013-03-12 04:50:00,
2013-03-12 00:55:00,50.4,49.3,29.81,NW,323,0.0,0.0,96,0.20,,,0.16,VWS V14.01,2013-03-12 04:55:00,
2013-03-12 01:00:00,50.4,49.3,29.81,NW,324,0.0,2.0,96,0.16,,,0.16,VWS V14.01,2013-03-12 05:00:00,
2013-03-12 01:05:00,50.3,49.2,29.81,NW,324,0.0,2.0,96,0.16,,,0.16,VWS V14.01,2013-03-12 05:05:00,
2013-03-12 01:10:00,50.3,49.2,29.80,NW,324,0.0,2.0,96,0.17,,,0.17,VWS V14.01,2013-03-12 05:10:00,
2013-03-12 01:15:00,50.3,49.2,29.80,NW,324,0.0,2.0,96,0.17,,,0.17,VWS V14.01,2013-03-12 05:15:00,
2013-03-12 01:20:00,50.4,49.3,29.80,NW,324,0.0,2.0,96,0.17,,,0.17,VWS V14.01,2013-03-12 05:20:00,
2013-03-12 01:25:00,50.4,49.3,29.79,NW,324,0.0,2.0,96,0.17,,,0.17,VWS V14.01,2013-03-12 05:25:00,
2013-03-12 01:30:00,50.4,49.3,29.79,NW,324,0.0,0.0,96,0.08,,,0.17,VWS V14.01,2013-03-12 05:30:00,
2013-03-12 01:35:00,50.5,49.4,29.79,NW,324,0.0,2.0,96,0.08,,,0.17,VWS V14.01,2013-03-12 05:35:00,
2013-03-12 01:40:00,50.4,49.3,29.79,NW,324,0.0,2.0,96,0.08,,,0.17,VWS V14.01,2013-03-12 05:40:00,
2013-03-12 01:45:00,50.4,49.3,29.79,NW,324,0.0,2.0,96,0.08,,,0.17,VWS V14.01,2013-03-12 05:45:00,
2013-03-12 01:50:00,50.4,49.3,29.79,NW,324,0.0,2.0,96,0.09,,,0.18,VWS V14.01,2013-03-12 05:50:00,
2013-03-12 01:55:00,50.4,49.3,29.79,NW,324,0.0,2.0,96,0.09,,,0.18,VWS V14.01,2013-03-12 05:55:00,
2013-03-12 02:00:00,50.4,49.3,29.78,NW,324,0.0,0.0,96,0.03,,,0.19,VWS V14.01,2013-03-12 06:00:00,
2013-03-12 02:05:00,50.4,49.3,29.78,NW,324,0.0,1.0,96,0.03,,,0.19,VWS V14.01,2013-03-12 06:05:00,
2013-03-12 02:10:00,50.4,49.3,29.78,NW,324,0.0,1.0,96,0.03,,,0.19,VWS V14.01,2013-03-12 06:10:00,
2013-03-12 02:15:00,50.4,49.3,29.78,NW,324,0.0,1.0,96,0.04,,,0.20,VWS V14.01,2013-03-12 06:15:00,
2013-03-12 02:20:00,50.4,49.3,29.77,NW,324,0.0,1.0,96,0.05,,,0.21,VWS V14.01,2013-03-12 06:20:00,
2013-03-12 02:25:00,50.4,49.3,29.77,NW,324,0.0,1.0,96,0.05,,,0.21,VWS V14.01,2013-03-12 06:25:00,
2013-03-12 02:30:00,50.3,49.2,29.77,NW,324,0.0,0.0,96,0.04,,,0.21,VWS V14.01,2013-03-12 06:30:00,
2013-03-12 02:35:00,50.3,49.2,29.77,NW,324,0.0,0.0,96,0.05,,,0.22,VWS V14.01,2013-03-12 06:35:00,
2013-03-12 02:40:00,50.3,49.2,29.77,NW,324,0.0,1.0,96,0.06,,,0.23,VWS V14.01,2013-03-12 06:40:00,
2013-03-12 02:45:00,50.2,49.1,29.77,NW,324,0.0,1.0,96,0.06,,,0.23,VWS V14.01,2013-03-12 06:45:00,
2013-03-12 02:50:00,50.2,49.1,29.77,NW,324,0.0,1.0,96,0.06,,,0.23,VWS V14.01,2013-03-12 06:50:00,
2013-03-12 02:55:00,50.2,49.1,29.77,NW,324,0.0,1.0,96,0.07,,,0.24,VWS V14.01,2013-03-12 06:55:00,
2013-03-12 03:00:00,50.2,49.1,29.77,NW,324,0.0,0.0,96,0.05,,,0.24,VWS V14.01,2013-03-12 07:00:00,
2013-03-12 03:05:00,50.2,49.1,29.77,NW,324,0.0,0.0,96,0.05,,,0.24,VWS V14.01,2013-03-12 07:05:00,
2013-03-12 03:10:00,50.2,49.1,29.77,NW,324,0.0,0.0,96,0.06,,,0.25,VWS V14.01,2013-03-12 07:10:00,
2013-03-12 03:15:00,50.2,49.1,29.76,NW,324,0.0,0.0,96,0.07,,,0.26,VWS V14.01,2013-03-12 07:15:00,
2013-03-12 03:20:00,50.1,49.0,29.76,NW,324,0.0,0.0,96,0.08,,,0.27,VWS V14.01,2013-03-12 07:20:00,
2013-03-12 03:25:00,50.2,49.1,29.76,NW,324,0.0,1.0,96,0.08,,,0.27,VWS V14.01,2013-03-12 07:25:00,
2013-03-12 03:30:00,50.1,49.0,29.75,NW,324,0.0,0.0,96,0.09,,,0.30,VWS V14.01,2013-03-12 07:30:00,
2013-03-12 03:35:00,50.2,49.1,29.75,NW,324,0.0,2.0,96,0.09,,,0.30,VWS V14.01,2013-03-12 07:35:00,
2013-03-12 03:40:00,50.2,49.1,29.76,NW,324,0.0,2.0,96,0.11,,,0.32,VWS V14.01,2013-03-12 07:40:00,
2013-03-12 03:45:00,50.3,49.2,29.76,NW,324,0.0,2.0,96,0.14,,,0.35,VWS V14.01,2013-03-12 07:45:00,
2013-03-12 03:50:00,50.4,49.3,29.76,NW,324,0.0,2.0,96,0.17,,,0.38,VWS V14.01,2013-03-12 07:50:00,
2013-03-12 03:55:00,50.4,49.3,29.75,NW,324,0.0,2.0,96,0.17,,,0.38,VWS V14.01,2013-03-12 07:55:00,
2013-03-12 04:00:00,50.4,49.3,29.76,NW,324,0.0,0.0,96,0.14,,,0.38,VWS V14.01,2013-03-12 08:00:00,
2013-03-12 04:05:00,50.4,49.3,29.76,WNW,282,1.0,2.0,96,0.15,,,0.39,VWS V14.01,2013-03-12 08:05:00,
2013-03-12 04:10:00,50.1,49.0,29.76,West,259,1.0,4.0,96,0.15,,,0.39,VWS V14.01,2013-03-12 08:10:00,
2013-03-12 04:15:00,49.6,48.5,29.76,NW,319,2.0,4.0,96,0.15,,,0.39,VWS V14.01,2013-03-12 08:15:00,
2013-03-12 04:20:00,49.0,47.9,29.76,WNW,282,3.0,5.0,96,0.15,,,0.39,VWS V14.01,2013-03-12 08:20:00,
2013-03-12 04:25:00,48.5,47.1,29.75,NW,321,2.0,5.0,95,0.15,,,0.39,VWS V14.01,2013-03-12 08:25:00,
2013-03-12 04:30:00,48.1,46.7,29.75,NW,304,0.0,3.0,95,0.09,,,0.39,VWS V14.01,2013-03-12 08:30:00,
2013-03-12 04:35:00,47.8,46.4,29.75,WSW,245,1.0,5.0,95,0.10,,,0.40,VWS V14.01,2013-03-12 08:35:00,
2013-03-12 04:40:00,47.6,46.2,29.75,NW,313,0.0,5.0,95,0.10,,,0.40,VWS V14.01,2013-03-12 08:40:00,
2013-03-12 04:45:00,47.4,46.0,29.75,WSW,255,3.0,5.0,95,0.10,,,0.40,VWS V14.01,2013-03-12 08:45:00,
2013-03-12 04:50:00,47.1,45.7,29.76,West,261,0.0,5.0,95,0.10,,,0.40,VWS V14.01,2013-03-12 08:50:00,
2013-03-12 04:55:00,46.9,45.5,29.76,West,275,4.0,6.0,95,0.10,,,0.40,VWS V14.01,2013-03-12 08:55:00,
2013-03-12 05:00:00,46.6,45.0,29.76,West,273,0.0,1.0,94,0.02,,,0.40,VWS V14.01,2013-03-12 09:00:00,
2013-03-12 05:05:00,46.2,44.6,29.76,WNW,296,3.0,6.0,94,0.02,,,0.40,VWS V14.01,2013-03-12 09:05:00,
2013-03-12 05:10:00,46.0,44.4,29.76,West,279,1.0,6.0,94,0.02,,,0.40,VWS V14.01,2013-03-12 09:10:00,
2013-03-12 05:15:00,45.9,44.3,29.76,WSW,253,1.0,6.0,94,0.02,,,0.40,VWS V14.01,2013-03-12 09:15:00,
2013-03-12 05:20:00,45.9,44.5,29.76,SW,230,5.0,7.0,95,0.02,,,0.40,VWS V14.01,2013-03-12 09:20:00,
2013-03-12 05:25:00,45.7,44.3,29.77,WSW,254,0.0,7.0,95,0.02,,,0.40,VWS V14.01,2013-03-12 09:25:00,
2013-03-12 05:30:00,45.5,43.9,29.77,WNW,302,1.0,5.0,94,0.01,,,0.40,VWS V14.01,2013-03-12 09:30:00,
2013-03-12 05:35:00,45.2,43.6,29.77,WSW,247,4.0,7.0,94,0.01,,,0.40,VWS V14.01,2013-03-12 09:35:00,
2013-03-12 05:40:00,44.8,43.2,29.77,SW,231,1.0,7.0,94,0.01,,,0.40,VWS V14.01,2013-03-12 09:40:00,
2013-03-12 05:45:00,44.6,43.0,29.78,SW,223,1.0,7.0,94,0.01,,,0.40,VWS V14.01,2013-03-12 09:45:00,
2013-03-12 05:50:00,44.4,42.8,29.78,SSW,203,6.0,7.0,94,0.01,,,0.40,VWS V14.01,2013-03-12 09:50:00,
2013-03-12 05:55:00,44.3,42.4,29.78,NW,321,3.0,7.0,93,0.01,,,0.40,VWS V14.01,2013-03-12 09:55:00,
2013-03-12 06:00:00,44.0,42.1,29.78,West,261,4.0,4.0,93,0.00,,,0.40,VWS V14.01,2013-03-12 10:00:00,
2013-03-12 06:05:00,43.8,41.9,29.78,NNW,332,0.0,6.0,93,0.00,,,0.40,VWS V14.01,2013-03-12 10:05:00,
2013-03-12 06:10:00,43.6,41.7,29.78,West,259,7.0,8.0,93,0.00,,,0.40,VWS V14.01,2013-03-12 10:10:00,
2013-03-12 06:15:00,43.3,41.4,29.78,WSW,254,4.0,10.0,93,0.00,,,0.40,VWS V14.01,2013-03-12 10:15:00,
2013-03-12 06:20:00,43.1,41.2,29.78,SW,228,1.0,10.0,93,0.00,,,0.40,VWS V14.01,2013-03-12 10:20:00,
2013-03-12 06:25:00,42.9,41.0,29.78,WSW,250,0.0,10.0,93,0.00,,,0.40,VWS V14.01,2013-03-12 10:25:00,
2013-03-12 06:30:00,42.7,40.8,29.78,WNW,296,5.0,5.0,93,0.00,,,0.40,VWS V14.01,2013-03-12 10:30:00,
2013-03-12 06:35:00,42.5,40.6,29.78,West,278,0.0,6.0,93,0.00,,,0.40,VWS V14.01,2013-03-12 10:35:00,
2013-03-12 06:40:00,42.4,40.5,29.79,NNW,328,2.0,7.0,93,0.00,,,0.40,VWS V14.01,2013-03-12 10:40:00,
2013-03-12 06:45:00,42.3,40.4,29.79,West,276,1.0,7.0,93,0.00,,,0.40,VWS V14.01,2013-03-12 10:45:00,
2013-03-12 06:50:00,42.2,40.3,29.80,SW,228,5.0,7.0,93,0.00,,,0.40,VWS V14.01,2013-03-12 10:50:00,
2013-03-12 06:55:00,42.1,40.2,29.80,SW,234,1.0,10.0,93,0.00,,,0.40,VWS V14.01,2013-03-12 10:55:00,
2013-03-12 07:00:00,42.0,39.8,29.80,WSW,243,5.0,5.0,92,0.00,,,0.40,VWS V14.01,2013-03-12 11:00:00,
2013-03-12 07:05:00,42.0,39.8,29.80,West,278,1.0,5.0,92,0.00,,,0.40,VWS V14.01,2013-03-12 11:05:00,
2013-03-12 07:10:00,41.8,39.7,29.80,WNW,302,1.0,5.0,92,0.00,,,0.40,VWS V14.01,2013-03-12 11:10:00,
2013-03-12 07:15:00,41.6,39.5,29.80,WSW,246,1.0,6.0,92,0.00,,,0.40,VWS V14.01,2013-03-12 11:15:00,
2013-03-12 07:20:00,41.5,39.3,29.80,WSW,250,4.0,6.0,92,0.00,,,0.40,VWS V14.01,2013-03-12 11:20:00,
2013-03-12 07:25:00,41.3,39.2,29.81,NW,324,0.0,6.0,92,0.00,,,0.40,VWS V14.01,2013-03-12 11:25:00,
2013-03-12 07:30:00,41.2,39.1,29.81,NNW,329,0.0,2.0,92,0.00,,,0.40,VWS V14.01,2013-03-12 11:30:00,
2013-03-12 07:35:00,41.0,38.9,29.82,WSW,254,2.0,7.0,92,0.00,,,0.40,VWS V14.01,2013-03-12 11:35:00,
2013-03-12 07:40:00,40.9,38.8,29.82,SW,223,1.0,7.0,92,0.00,,,0.40,VWS V14.01,2013-03-12 11:40:00,
2013-03-12 07:45:00,40.7,38.6,29.82,SSW,194,4.0,7.0,92,0.00,,,0.40,VWS V14.01,2013-03-12 11:45:00,
2013-03-12 07:50:00,40.6,38.5,29.82,WSW,249,2.0,7.0,92,0.00,,,0.40,VWS V14.01,2013-03-12 11:50:00,
2013-03-12 07:55:00,40.5,38.4,29.83,South,187,3.0,8.0,92,0.00,,,0.40,VWS V14.01,2013-03-12 11:55:00,
2013-03-12 08:00:00,40.4,38.3,29.83,WSW,248,0.0,4.0,92,0.00,,,0.40,VWS V14.01,2013-03-12 12:00:00,
2013-03-12 08:05:00,40.2,38.1,29.83,WSW,256,2.0,9.0,92,0.00,,,0.40,VWS V14.01,2013-03-12 12:05:00,
2013-03-12 08:10:00,40.0,37.9,29.83,WSW,243,3.0,9.0,92,0.00,,,0.40,VWS V14.01,2013-03-12 12:10:00,
2013-03-12 08:15:00,39.8,37.7,29.84,NNW,342,0.0,9.0,92,0.00,,,0.40,VWS V14.01,2013-03-12 12:15:00,
2013-03-12 08:20:00,39.7,37.6,29.84,West,274,1.0,9.0,92,0.00,,,0.40,VWS V14.01,2013-03-12 12:20:00,
2013-03-12 08:25:00,39.6,37.5,29.85,West,259,4.0,9.0,92,0.00,,,0.40,VWS V14.01,2013-03-12 12:25:00,
2013-03-12 08:30:00,39.5,37.4,29.85,South,175,3.0,5.0,92,0.00,,,0.40,VWS V14.01,2013-03-12 12:30:00,
2013-03-12 08:35:00,39.5,37.4,29.86,NW,308,1.0,6.0,92,0.00,,,0.40,VWS V14.01,2013-03-12 12:35:00,
2013-03-12 08:40:00,39.4,37.3,29.86,WSW,248,3.0,7.0,92,0.00,,,0.40,VWS V14.01,2013-03-12 12:40:00,
2013-03-12 08:45:00,39.5,37.1,29.87,WSW,238,2.0,8.0,91,0.00,,,0.40,VWS V14.01,2013-03-12 12:45:00,
2013-03-12 08:50:00,39.6,37.2,29.87,SSW,195,5.0,9.0,91,0.00,,,0.40,VWS V14.01,2013-03-12 12:50:00,
2013-03-12 08:55:00,39.6,36.9,29.87,West,267,0.0,10.0,90,0.00,,,0.40,VWS V14.01,2013-03-12 12:55:00,
2013-03-12 09:00:00,39.6,36.6,29.87,West,269,1.0,3.0,89,0.00,,,0.40,VWS V14.01,2013-03-12 13:00:00,
2013-03-12 09:05:00,39.7,36.7,29.88,WSW,254,4.0,4.0,89,0.00,,,0.40,VWS V14.01,2013-03-12 13:05:00,
2013-03-12 09:10:00,39.7,36.7,29.88,WSW,247,0.0,5.0,89,0.00,,,0.40,VWS V14.01,2013-03-12 13:10:00,
2013-03-12 09:15:00,39.5,36.2,29.88,SW,223,6.0,6.0,88,0.00,,,0.40,VWS V14.01,2013-03-12 13:15:00,
2013-03-12 09:20:00,39.4,36.2,29.88,SSW,202,4.0,12.0,88,0.00,,,0.40,VWS V14.01,2013-03-12 13:20:00,
2013-03-12 09:25:00,39.6,36.6,29.88,SW,232,4.0,12.0,89,0.00,,,0.40,VWS V14.01,2013-03-12 13:25:00,
2013-03-12 09:30:00,39.9,36.6,29.88,SE,146,3.0,4.0,88,0.00,,,0.40,VWS V14.01,2013-03-12 13:30:00,
2013-03-12 09:35:00,40.2,36.9,29.88,NNW,348,0.0,4.0,88,0.00,,,0.40,VWS V14.01,2013-03-12 13:35:00,
2013-03-12 09:40:00,40.7,37.1,29.88,South,189,1.0,5.0,87,0.00,,,0.40,VWS V14.01,2013-03-12 13:40:00,
2013-03-12 09:45:00,41.1,37.2,29.88,NW,325,0.0,5.0,86,0.00,,,0.40,VWS V14.01,2013-03-12 13:45:00,
2013-03-12 09:50:00,41.5,37.6,29.88,WSW,245,6.0,8.0,86,0.00,,,0.40,VWS V14.01,2013-03-12 13:50:00,
2013-03-12 09:55:00,41.7,37.2,29.88,SSW,194,4.0,8.0,84,0.00,,,0.40,VWS V14.01,2013-03-12 13:55:00,
2013-03-12 10:00:00,42.0,37.8,29.88,SSW,207,3.0,3.0,85,0.00,,,0.40,VWS V14.01,2013-03-12 14:00:00,
2013-03-12 10:05:00,41.9,37.1,29.88,West,263,3.0,7.0,83,0.00,,,0.40,VWS V14.01,2013-03-12 14:05:00,
2013-03-12 10:10:00,41.8,37.0,29.89,West,267,0.0,8.0,83,0.00,,,0.40,VWS V14.01,2013-03-12 14:10:00,
2013-03-12 10:15:00,41.8,37.6,29.89,SW,220,2.0,8.0,85,0.00,,,0.40,VWS V14.01,2013-03-12 14:15:00,
2013-03-12 10:20:00,42.0,37.5,29.89,SW,221,2.0,8.0,84,0.00,,,0.40,VWS V14.01,2013-03-12 14:20:00,
2013-03-12 10:25:00,42.2,37.4,29.89,SW,229,4.0,11.0,83,0.00,,,0.40,VWS V14.01,2013-03-12 14:25:00,
2013-03-12 10:30:00,42.1,37.6,29.89,SW,236,7.0,7.0,84,0.00,,,0.40,VWS V14.01,2013-03-12 14:30:00,
2013-03-12 10:35:00,42.2,37.4,29.89,SW,233,9.0,10.0,83,0.00,,,0.40,VWS V14.01,2013-03-12 14:35:00,
2013-03-12 10:40:00,42.0,37.2,29.89,West,259,4.0,13.0,83,0.00,,,0.40,VWS V14.01,2013-03-12 14:40:00,
2013-03-12 10:45:00,42.1,37.3,29.89,West,261,4.0,13.0,83,0.00,,,0.40,VWS V14.01,2013-03-12 14:45:00,
2013-03-12 10:50:00,42.5,37.7,29.89,WSW,249,6.0,13.0,83,0.00,,,0.40,VWS V14.01,2013-03-12 14:50:00,
2013-03-12 10:55:00,42.6,37.5,29.89,NW,310,5.0,13.0,82,0.00,,,0.40,VWS V14.01,2013-03-12 14:55:00,
2013-03-12 11:00:00,42.5,37.4,29.89,West,271,3.0,7.0,82,0.00,,,0.40,VWS V14.01,2013-03-12 15:00:00,
2013-03-12 11:05:00,42.3,37.2,29.89,SW,221,3.0,10.0,82,0.00,,,0.40,VWS V14.01,2013-03-12 15:05:00,
2013-03-12 11:10:00,42.4,37.0,29.89,South,180,1.0,10.0,81,0.00,,,0.40,VWS V14.01,2013-03-12 15:10:00,
2013-03-12 11:15:00,42.7,37.3,29.89,SW,220,2.0,10.0,81,0.00,,,0.40,VWS V14.01,2013-03-12 15:15:00,
2013-03-12 11:20:00,42.8,37.1,29.88,West,271,5.0,10.0,80,0.00,,,0.40,VWS V14.01,2013-03-12 15:20:00,
2013-03-12 11:25:00,43.0,37.6,29.89,SSW,212,5.0,10.0,81,0.00,,,0.40,VWS V14.01,2013-03-12 15:25:00,
2013-03-12 11:30:00,43.2,37.5,29.89,NW,321,4.0,10.0,80,0.00,,,0.40,VWS V14.01,2013-03-12 15:30:00,
2013-03-12 11:35:00,43.6,37.8,29.89,SSW,209,5.0,10.0,80,0.00,,,0.40,VWS V14.01,2013-03-12 15:35:00,
2013-03-12 11:40:00,44.0,37.9,29.88,South,187,5.0,11.0,79,0.00,,,0.40,VWS V14.01,2013-03-12 15:40:00,
2013-03-12 11:45:00,44.2,37.5,29.89,WSW,256,5.0,14.0,77,0.00,,,0.40,VWS V14.01,2013-03-12 15:45:00,
2013-03-12 11:50:00,44.0,37.6,29.88,WSW,244,4.0,14.0,78,0.00,,,0.40,VWS V14.01,2013-03-12 15:50:00,
2013-03-12 11:55:00,44.2,37.5,29.88,SW,229,2.0,14.0,77,0.00,,,0.40,VWS V14.01,2013-03-12 15:55:00,
2013-03-12 12:00:00,44.5,37.4,29.89,WNW,288,6.0,11.0,76,0.00,,,0.40,VWS V14.01,2013-03-12 16:00:00,
2013-03-12 12:05:00,44.7,37.9,29.89,SW,232,7.0,12.0,77,0.00,,,0.40,VWS V14.01,2013-03-12 16:05:00,
2013-03-12 12:10:00,45.0,37.9,29.89,WNW,292,4.0,12.0,76,0.00,,,0.40,VWS V14.01,2013-03-12 16:10:00,
2013-03-12 12:15:00,44.9,37.8,29.89,SW,221,8.0,12.0,76,0.00,,,0.40,VWS V14.01,2013-03-12 16:15:00,
2013-03-12 12:20:00,44.9,37.5,29.89,SSW,192,7.0,12.0,75,0.00,,,0.40,VWS V14.01,2013-03-12 16:20:00,
2013-03-12 12:25:00,45.1,38.0,29.89,WSW,258,4.0,12.0,76,0.00,,,0.40,VWS V14.01,2013-03-12 16:25:00,
2013-03-12 12:30:00,45.2,38.1,29.89,SW,236,4.0,11.0,76,0.00,,,0.40,VWS V14.01,2013-03-12 16:30:00,
2013-03-12 12:35:00,45.5,38.4,29.89,WNW,296,9.0,13.0,76,0.00,,,0.40,VWS V14.01,2013-03-12 16:35:00,
2013-03-12 12:40:00,45.5,38.0,29.89,WSW,242,8.0,13.0,75,0.00,,,0.40,VWS V14.01,2013-03-12 16:40:00,
2013-03-12 12:45:00,45.4,38.0,29.90,WSW,237,4.0,14.0,75,0.00,,,0.40,VWS V14.01,2013-03-12 16:45:00,
2013-03-12 12:50:00,45.3,37.9,29.90,SW,219,7.0,14.0,75,0.00,,,0.40,VWS V14.01,2013-03-12 16:50:00,
2013-03-12 12:55:00,45.4,38.0,29.90,West,269,9.0,14.0,75,0.00,,,0.40,VWS V14.01,2013-03-12 16:55:00,
2013-03-12 13:00:00,45.4,38.3,29.90,South,174,4.0,10.0,76,0.00,,,0.40,VWS V14.01,2013-03-12 17:00:00,
2013-03-12 13:05:00,45.4,37.6,29.91,SW,219,9.0,14.0,74,0.00,,,0.40,VWS V14.01,2013-03-12 17:05:00,
2013-03-12 13:10:00,45.1,37.0,29.91,West,270,5.0,14.0,73,0.00,,,0.40,VWS V14.01,2013-03-12 17:10:00,
2013-03-12 13:15:00,45.0,37.2,29.91,SW,223,10.0,14.0,74,0.00,,,0.40,VWS V14.01,2013-03-12 17:15:00,
2013-03-12 13:20:00,45.3,37.5,29.91,West,275,5.0,14.0,74,0.00,,,0.40,VWS V14.01,2013-03-12 17:20:00,
2013-03-12 13:25:00,45.4,37.6,29.90,WSW,250,6.0,14.0,74,0.00,,,0.40,VWS V14.01,2013-03-12 17:25:00,
2013-03-12 13:30:00,45.5,37.0,29.91,SW,229,2.0,6.0,72,0.00,,,0.40,VWS V14.01,2013-03-12 17:30:00,
2013-03-12 13:35:00,46.0,37.5,29.91,SSW,196,5.0,10.0,72,0.00,,,0.40,VWS V14.01,2013-03-12 17:35:00,
2013-03-12 13:40:00,46.6,37.3,29.91,SW,227,7.0,10.0,70,0.00,,,0.40,VWS V14.01,2013-03-12 17:40:00,
2013-03-12 13:45:00,46.5,36.5,29.90,SW,214,8.0,15.0,68,0.00,,,0.40,VWS V14.01,2013-03-12 17:45:00,
2013-03-12 13:50:00,47.0,37.7,29.91,SW,234,7.0,15.0,70,0.00,,,0.40,VWS V14.01,2013-03-12 17:50:00,
2013-03-12 13:55:00,47.1,38.2,29.91,West,274,4.0,15.0,71,0.00,,,0.40,VWS V14.01,2013-03-12 17:55:00,
2013-03-12 14:00:00,47.2,37.9,29.90,WSW,252,6.0,7.0,70,0.00,,,0.40,VWS V14.01,2013-03-12 18:00:00,
2013-03-12 14:05:00,47.4,37.8,29.91,ESE,103,3.0,9.0,69,0.00,,,0.40,VWS V14.01,2013-03-12 18:05:00,
2013-03-12 14:10:00,47.6,37.6,29.90,SW,228,4.0,11.0,68,0.00,,,0.40,VWS V14.01,2013-03-12 18:10:00,
2013-03-12 14:15:00,47.9,37.5,29.90,WSW,245,5.0,12.0,67,0.00,,,0.40,VWS V14.01,2013-03-12 18:15:00,
2013-03-12 14:20:00,48.1,38.0,29.90,South,169,3.0,12.0,68,0.00,,,0.40,VWS V14.01,2013-03-12 18:20:00,
2013-03-12 14:25:00,48.2,38.5,29.90,South,186,4.0,12.0,69,0.00,,,0.40,VWS V14.01,2013-03-12 18:25:00,
2013-03-12 14:30:00,48.0,38.0,29.90,WSW,248,6.0,9.0,68,0.00,,,0.40,VWS V14.01,2013-03-12 18:30:00,
2013-03-12 14:35:00,47.8,37.0,29.90,WSW,244,7.0,11.0,66,0.00,,,0.40,VWS V14.01,2013-03-12 18:35:00,
2013-03-12 14:40:00,47.9,37.1,29.91,WSW,247,4.0,11.0,66,0.00,,,0.40,VWS V14.01,2013-03-12 18:40:00,
2013-03-12 14:45:00,47.9,36.7,29.91,NW,316,1.0,11.0,65,0.00,,,0.40,VWS V14.01,2013-03-12 18:45:00,
2013-03-12 14:50:00,47.8,37.0,29.91,SSW,207,2.0,11.0,66,0.00,,,0.40,VWS V14.01,2013-03-12 18:50:00,
2013-03-12 14:55:00,48.1,36.9,29.91,WSW,238,2.0,12.0,65,0.00,,,0.40,VWS V14.01,2013-03-12 18:55:00,
2013-03-12 15:00:00,48.2,37.0,29.91,WSW,254,6.0,8.0,65,0.00,,,0.40,VWS V14.01,2013-03-12 19:00:00,
2013-03-12 15:05:00,48.1,36.5,29.91,South,186,5.0,9.0,64,0.00,,,0.40,VWS V14.01,2013-03-12 19:05:00,
2013-03-12 15:10:00,48.1,37.3,29.91,West,261,2.0,10.0,66,0.00,,,0.40,VWS V14.01,2013-03-12 19:10:00,
2013-03-12 15:15:00,47.9,36.3,29.91,West,261,2.0,13.0,64,0.00,,,0.40,VWS V14.01,2013-03-12 19:15:00,
2013-03-12 15:20:00,47.6,36.0,29.91,SSW,211,7.0,13.0,64,0.00,,,0.40,VWS V14.01,2013-03-12 19:20:00,
2013-03-12 15:25:00,47.8,36.6,29.91,West,271,3.0,13.0,65,0.00,,,0.40,VWS V14.01,2013-03-12 19:25:00,
2013-03-12 15:30:00,48.1,36.5,29.91,South,183,1.0,5.0,64,0.00,,,0.40,VWS V14.01,2013-03-12 19:30:00,
2013-03-12 15:35:00,48.3,36.7,29.90,SW,227,7.0,13.0,64,0.00,,,0.40,VWS V14.01,2013-03-12 19:35:00,
2013-03-12 15:40:00,48.5,36.5,29.90,East,98,1.0,13.0,63,0.00,,,0.40,VWS V14.01,2013-03-12 19:40:00,
2013-03-12 15:45:00,49.0,36.6,29.90,SW,235,8.0,13.0,62,0.00,,,0.40,VWS V14.01,2013-03-12 19:45:00,
2013-03-12 15:50:00,49.5,36.6,29.90,WSW,254,3.0,13.0,61,0.00,,,0.40,VWS V14.01,2013-03-12 19:50:00,
2013-03-12 15:55:00,49.9,37.0,29.90,NNW,344,4.0,13.0,61,0.00,,,0.40,VWS V14.01,2013-03-12 19:55:00,
2013-03-12 16:00:00,50.4,37.0,29.90,SSW,208,3.0,6.0,60,0.00,,,0.40,VWS V14.01,2013-03-12 20:00:00,
2013-03-12 16:05:00,50.4,36.6,29.90,SSW,210,2.0,8.0,59,0.00,,,0.40,VWS V14.01,2013-03-12 20:05:00,
2013-03-12 16:10:00,50.3,36.1,29.91,WSW,253,6.0,9.0,58,0.00,,,0.40,VWS V14.01,2013-03-12 20:10:00,
2013-03-12 16:15:00,49.7,35.1,29.91,West,263,4.0,9.0,57,0.00,,,0.40,VWS V14.01,2013-03-12 20:15:00,
2013-03-12 16:20:00,50.0,35.4,29.91,WSW,238,6.0,9.0,57,0.00,,,0.40,VWS V14.01,2013-03-12 20:20:00,
2013-03-12 16:25:00,50.1,35.5,29.91,South,169,7.0,9.0,57,0.00,,,0.40,VWS V14.01,2013-03-12 20:25:00,
2013-03-12 16:30:00,50.0,34.9,29.91,SW,217,3.0,6.0,56,0.00,,,0.40,VWS V14.01,2013-03-12 20:30:00,
2013-03-12 16:35:00,50.1,34.6,29.91,NNW,331,4.0,10.0,55,0.00,,,0.40,VWS V14.01,2013-03-12 20:35:00,
2013-03-12 16:40:00,50.3,34.8,29.91,SW,227,5.0,10.0,55,0.00,,,0.40,VWS V14.01,2013-03-12 20:40:00,
2013-03-12 16:45:00,50.3,34.3,29.91,WSW,252,4.0,10.0,54,0.00,,,0.40,VWS V14.01,2013-03-12 20:45:00,
2013-03-12 16:50:00,50.4,34.9,29.91,West,281,5.0,10.0,55,0.00,,,0.40,VWS V14.01,2013-03-12 20:50:00,
2013-03-12 16:55:00,50.6,33.6,29.91,SSE,153,6.0,12.0,52,0.00,,,0.40,VWS V14.01,2013-03-12 20:55:00,
2013-03-12 17:00:00,50.6,34.1,29.91,SW,230,1.0,8.0,53,0.00,,,0.40,VWS V14.01,2013-03-12 21:00:00,
2013-03-12 17:05:00,50.6,33.6,29.91,WSW,241,3.0,8.0,52,0.00,,,0.40,VWS V14.01,2013-03-12 21:05:00,
2013-03-12 17:10:00,51.0,34.0,29.91,SSW,209,4.0,8.0,52,0.00,,,0.40,VWS V14.01,2013-03-12 21:10:00,
2013-03-12 17:15:00,50.9,34.9,29.91,SW,224,2.0,10.0,54,0.00,,,0.40,VWS V14.01,2013-03-12 21:15:00,
2013-03-12 17:20:00,51.0,33.5,29.91,SSW,201,4.0,10.0,51,0.00,,,0.40,VWS V14.01,2013-03-12 21:20:00,
2013-03-12 17:25:00,51.3,31.8,29.91,NW,310,1.0,10.0,47,0.00,,,0.40,VWS V14.01,2013-03-12 21:25:00,
2013-03-12 17:30:00,52.0,31.9,29.92,WSW,245,3.0,3.0,46,0.00,,,0.40,VWS V14.01,2013-03-12 21:30:00,
2013-03-12 17:35:00,52.1,29.1,29.92,WNW,296,3.0,8.0,41,0.00,,,0.40,VWS V14.01,2013-03-12 21:35:00,
2013-03-12 17:40:00,52.2,32.6,29.92,West,271,0.0,8.0,47,0.00,,,0.40,VWS V14.01,2013-03-12 21:40:00,
2013-03-12 17:45:00,52.3,30.5,29.92,SW,218,9.0,9.0,43,0.00,,,0.40,VWS V14.01,2013-03-12 21:45:00,
2013-03-12 17:50:00,52.4,28.8,29.92,West,277,3.0,9.0,40,0.00,,,0.40,VWS V14.01,2013-03-12 21:50:00,
2013-03-12 17:55:00,52.2,31.5,29.92,SW,225,3.0,9.0,45,0.00,,,0.40,VWS V14.01,2013-03-12 21:55:00,
2013-03-12 18:00:00,51.7,29.9,29.92,SW,227,4.0,4.0,43,0.00,,,0.40,VWS V14.01,2013-03-12 22:00:00,
2013-03-12 18:05:00,51.6,29.3,29.92,SSW,209,0.0,7.0,42,0.00,,,0.40,VWS V14.01,2013-03-12 22:05:00,
2013-03-12 18:10:00,51.6,27.5,29.93,North,355,2.0,9.0,39,0.00,,,0.40,VWS V14.01,2013-03-12 22:10:00,
2013-03-12 18:15:00,51.4,27.9,29.93,NNW,348,1.0,9.0,40,0.00,,,0.40,VWS V14.01,2013-03-12 22:15:00,
2013-03-12 18:20:00,51.0,30.4,29.94,WNW,286,5.0,9.0,45,0.00,,,0.40,VWS V14.01,2013-03-12 22:20:00,
2013-03-12 18:25:00,50.8,29.1,29.94,North,360,0.0,9.0,43,0.00,,,0.40,VWS V14.01,2013-03-12 22:25:00,
2013-03-12 18:30:00,50.6,30.1,29.94,NNW,344,0.0,0.0,45,0.00,,,0.40,VWS V14.01,2013-03-12 22:30:00,
2013-03-12 18:35:00,50.5,31.0,29.94,NNE,13,0.0,1.0,47,0.00,,,0.40,VWS V14.01,2013-03-12 22:35:00,
2013-03-12 18:40:00,50.4,28.2,29.95,WNW,284,0.0,6.0,42,0.00,,,0.40,VWS V14.01,2013-03-12 22:40:00,
2013-03-12 18:45:00,50.0,26.6,29.94,West,263,2.0,8.0,40,0.00,,,0.40,VWS V14.01,2013-03-12 22:45:00,
2013-03-12 18:50:00,49.8,27.1,29.95,WSW,240,1.0,8.0,41,0.00,,,0.40,VWS V14.01,2013-03-12 22:50:00,
2013-03-12 18:55:00,49.6,26.9,29.95,WNW,294,1.0,8.0,41,0.00,,,0.40,VWS V14.01,2013-03-12 22:55:00,
2013-03-12 19:00:00,49.1,29.2,29.96,WNW,296,2.0,3.0,46,0.00,,,0.40,VWS V14.01,2013-03-12 23:00:00,
2013-03-12 19:05:00,48.5,28.1,29.96,West,261,0.0,3.0,45,0.00,,,0.40,VWS V14.01,2013-03-12 23:05:00,
2013-03-12 19:10:00,47.9,29.2,29.97,WSW,248,0.0,5.0,48,0.00,,,0.40,VWS V14.01,2013-03-12 23:10:00,
2013-03-12 19:15:00,47.3,29.6,29.97,WSW,243,0.0,5.0,50,0.00,,,0.40,VWS V14.01,2013-03-12 23:15:00,
2013-03-12 19:20:00,46.9,28.8,29.97,WSW,240,0.0,5.0,49,0.00,,,0.40,VWS V14.01,2013-03-12 23:20:00,
2013-03-12 19:25:00,46.6,28.5,29.97,WSW,241,0.0,5.0,49,0.00,,,0.40,VWS V14.01,2013-03-12 23:25:00,
2013-03-12 19:30:00,46.1,29.0,29.97,SW,223,0.0,1.0,51,0.00,,,0.40,VWS V14.01,2013-03-12 23:30:00,
2013-03-12 19:35:00,45.7,29.1,29.97,SW,227,0.0,6.0,52,0.00,,,0.40,VWS V14.01,2013-03-12 23:35:00,
2013-03-12 19:40:00,45.3,28.2,29.98,SW,222,0.0,6.0,51,0.00,,,0.40,VWS V14.01,2013-03-12 23:40:00,
2013-03-12 19:45:00,45.0,27.5,29.99,WNW,287,0.0,6.0,50,0.00,,,0.40,VWS V14.01,2013-03-12 23:45:00,
2013-03-12 19:50:00,44.7,28.2,29.99,WNW,287,0.0,6.0,52,0.00,,,0.40,VWS V14.01,2013-03-12 23:50:00,
2013-03-12 19:55:00,44.4,27.4,29.99,SW,227,0.0,6.0,51,0.00,,,0.40,VWS V14.01,2013-03-12 23:55:00,
2013-03-12 20:00:00,44.2,26.8,29.99,SSW,210,4.0,4.0,50,0.00,,,0.40,VWS V14.01,2013-03-13 00:00:00,
2013-03-12 20:05:00,44.2,27.7,29.99,WSW,242,0.0,4.0,52,0.00,,,0.40,VWS V14.01,2013-03-13 00:05:00,
2013-03-12 20:10:00,44.0,28.4,29.99,WSW,242,0.0,4.0,54,0.00,,,0.40,VWS V14.01,2013-03-13 00:10:00,
2013-03-12 20:15:00,43.7,27.7,29.99,SSW,209,0.0,4.0,53,0.00,,,0.40,VWS V14.01,2013-03-13 00:15:00,
2013-03-12 20:20:00,43.4,28.8,29.99,SE,129,0.0,5.0,56,0.00,,,0.40,VWS V14.01,2013-03-13 00:20:00,
2013-03-12 20:25:00,43.1,28.0,30.00,SW,225,0.0,5.0,55,0.00,,,0.40,VWS V14.01,2013-03-13 00:25:00,
2013-03-12 20:30:00,43.0,28.8,30.00,SSE,166,1.0,2.0,57,0.00,,,0.40,VWS V14.01,2013-03-13 00:30:00,
2013-03-12 20:35:00,42.7,29.8,30.00,SSE,166,0.0,2.0,60,0.00,,,0.40,VWS V14.01,2013-03-13 00:35:00,
2013-03-12 20:40:00,42.3,29.4,30.00,SSE,163,1.0,2.0,60,0.00,,,0.40,VWS V14.01,2013-03-13 00:40:00,
2013-03-12 20:45:00,42.2,29.3,30.00,NW,316,0.0,4.0,60,0.00,,,0.40,VWS V14.01,2013-03-13 00:45:00,
2013-03-12 20:50:00,42.1,29.2,30.00,WSW,243,0.0,4.0,60,0.00,,,0.40,VWS V14.01,2013-03-13 00:50:00,
2013-03-12 20:55:00,42.0,29.9,30.00,South,190,0.0,4.0,62,0.00,,,0.40,VWS V14.01,2013-03-13 00:55:00,
2013-03-12 21:00:00,41.9,30.2,30.01,SW,217,1.0,3.0,63,0.00,,,0.40,VWS V14.01,2013-03-13 01:00:00,
2013-03-12 21:05:00,41.8,30.1,30.01,SSW,197,1.0,5.0,63,0.00,,,0.40,VWS V14.01,2013-03-13 01:05:00,
2013-03-12 21:10:00,41.7,30.4,30.01,SSW,213,0.0,5.0,64,0.00,,,0.40,VWS V14.01,2013-03-13 01:10:00,
2013-03-12 21:15:00,41.6,30.3,30.01,SSW,213,0.0,5.0,64,0.00,,,0.40,VWS V14.01,2013-03-13 01:15:00,
2013-03-12 21:20:00,41.5,30.2,30.01,SSW,213,0.0,5.0,64,0.00,,,0.40,VWS V14.01,2013-03-13 01:20:00,
2013-03-12 21:25:00,41.3,30.4,30.02,SSW,213,0.0,5.0,65,0.00,,,0.40,VWS V14.01,2013-03-13 01:25:00,
2013-03-12 21:30:00,41.1,30.6,30.01,NW,314,1.0,3.0,66,0.00,,,0.40,VWS V14.01,2013-03-13 01:30:00,
2013-03-12 21:35:00,41.0,30.9,30.02,SW,218,0.0,3.0,67,0.00,,,0.40,VWS V14.01,2013-03-13 01:35:00,
2013-03-12 21:40:00,41.1,31.0,30.02,SSW,196,0.0,4.0,67,0.00,,,0.40,VWS V14.01,2013-03-13 01:40:00,
2013-03-12 21:45:00,41.1,31.0,30.02,SSW,197,0.0,4.0,67,0.00,,,0.40,VWS V14.01,2013-03-13 01:45:00,
2013-03-12 21:50:00,41.0,31.3,30.02,SW,221,1.0,4.0,68,0.00,,,0.40,VWS V14.01,2013-03-13 01:50:00,
2013-03-12 21:55:00,40.9,30.1,30.02,NNW,331,1.0,5.0,65,0.00,,,0.40,VWS V14.01,2013-03-13 01:55:00,
2013-03-12 22:00:00,41.1,30.2,30.02,SSE,161,2.0,6.0,65,0.00,,,0.40,VWS V14.01,2013-03-13 02:00:00,
2013-03-12 22:05:00,41.4,30.1,30.02,West,277,0.0,6.0,64,0.00,,,0.40,VWS V14.01,2013-03-13 02:05:00,
2013-03-12 22:10:00,41.3,30.8,30.02,West,277,0.0,6.0,66,0.00,,,0.40,VWS V14.01,2013-03-13 02:10:00,
2013-03-12 22:15:00,41.0,30.1,30.02,WSW,238,2.0,7.0,65,0.00,,,0.40,VWS V14.01,2013-03-13 02:15:00,
2013-03-12 22:20:00,41.0,32.0,30.03,WSW,238,0.0,7.0,70,0.00,,,0.40,VWS V14.01,2013-03-13 02:20:00,
2013-03-12 22:25:00,41.0,30.5,30.02,NW,322,0.0,7.0,66,0.00,,,0.40,VWS V14.01,2013-03-13 02:25:00,
2013-03-12 22:30:00,41.0,30.5,30.03,SSW,202,0.0,1.0,66,0.00,,,0.40,VWS V14.01,2013-03-13 02:30:00,
2013-03-12 22:35:00,41.1,31.0,30.02,SSW,196,0.0,4.0,67,0.00,,,0.40,VWS V14.01,2013-03-13 02:35:00,
2013-03-12 22:40:00,40.9,31.5,30.02,SSW,201,0.0,5.0,69,0.00,,,0.40,VWS V14.01,2013-03-13 02:40:00,
2013-03-12 22:45:00,40.6,31.2,30.02,SW,217,0.0,5.0,69,0.00,,,0.40,VWS V14.01,2013-03-13 02:45:00,
2013-03-12 22:50:00,40.6,31.2,30.03,SW,226,0.0,5.0,69,0.00,,,0.40,VWS V14.01,2013-03-13 02:50:00,
2013-03-12 22:55:00,40.5,31.1,30.03,SW,226,1.0,5.0,69,0.00,,,0.40,VWS V14.01,2013-03-13 02:55:00,
2013-03-12 23:00:00,40.5,31.1,30.02,NNW,341,1.0,1.0,69,0.00,,,0.40,VWS V14.01,2013-03-13 03:00:00,
2013-03-12 23:05:00,40.5,31.5,30.02,WNW,294,0.0,5.0,70,0.00,,,0.40,VWS V14.01,2013-03-13 03:05:00,
2013-03-12 23:10:00,40.5,31.9,30.02,West,259,2.0,5.0,71,0.00,,,0.40,VWS V14.01,2013-03-13 03:10:00,
2013-03-12 23:15:00,40.4,31.8,30.02,SSW,205,0.0,5.0,71,0.00,,,0.40,VWS V14.01,2013-03-13 03:15:00,
2013-03-12 23:20:00,40.4,31.8,30.03,West,269,0.0,6.0,71,0.00,,,0.40,VWS V14.01,2013-03-13 03:20:00,
2013-03-12 23:25:00,40.4,31.8,30.03,SW,218,2.0,7.0,71,0.00,,,0.40,VWS V14.01,2013-03-13 03:25:00,
2013-03-12 23:30:00,40.5,31.9,30.03,WNW,293,0.0,4.0,71,0.00,,,0.40,VWS V14.01,2013-03-13 03:30:00,
2013-03-12 23:35:00,40.4,31.8,30.03,WSW,258,2.0,4.0,71,0.00,,,0.40,VWS V14.01,2013-03-13 03:35:00,
2013-03-12 23:40:00,40.5,31.9,30.03,SSW,213,3.0,7.0,71,0.00,,,0.40,VWS V14.01,2013-03-13 03:40:00,
2013-03-12 23:45:00,40.6,32.0,30.04,West,276,2.0,7.0,71,0.00,,,0.40,VWS V14.01,2013-03-13 03:45:00,
2013-03-12 23:50:00,40.5,31.9,30.04,NNW,344,0.0,7.0,71,0.00,,,0.40,VWS V14.01,2013-03-13 03:50:00,
2013-03-12 23:55:00,40.4,31.8,30.04,WNW,285,0.0,7.0,71,0.00,,,0.40,VWS V14.01,2013-03-13 03:55:00,